Time;durP1;ratioP1;P1;durP2;ratioP2;P2;SDS_P1;SDS_P2;PMS_P1;PMS_P2;Temp;Humidity;BMP_temperature;BMP_pressure;BME280_temperature;BME280_humidity;BME280_pressure;Samples;Min_cycle;Max_cycle;Signal;HPM_P1;HPM_P2
2022/07/25 00:00:53;;;;;;;3.80;3.50;;;;;;;;;;12546835;28;20033;-75
2022/07/25 00:06:55;;;;;;;3.28;3.00;;;;;;;;;;12548716;28;20033;-80
2022/07/25 00:12:57;;;;;;;3.05;2.75;;;;;;;;;;12547060;28;20520;-79
2022/07/25 00:18:58;;;;;;;3.10;2.80;;;;;;;;;;12546674;28;20396;-77
2022/07/25 00:25:00;;;;;;;3.40;3.20;;;;;;;;;;12546757;28;20028;-79
2022/07/25 00:31:02;;;;;;;5.20;3.20;;;;;;;;;;12547334;28;20408;-76
2022/07/25 00:37:04;;;;;;;2.67;2.45;;;;;;;;;;12544398;28;20480;-76
2022/07/25 00:43:05;;;;;;;3.72;3.42;;;;;;;;;;12544728;28;20061;-75
2022/07/25 00:49:07;;;;;;;3.63;3.33;;;;;;;;;;12546892;28;20036;-79
2022/07/25 00:55:09;;;;;;;5.10;3.25;;;;;;;;;;12545360;28;20048;-80
2022/07/25 01:01:11;;;;;;;3.63;3.30;;;;;;;;;;12547086;28;20033;-75
2022/07/25 01:07:13;;;;;;;4.53;3.38;;;;;;;;;;12545910;28;20032;-79
2022/07/25 01:13:15;;;;;;;3.95;3.53;;;;;;;;;;12546337;28;20041;-75
2022/07/25 01:19:16;;;;;;;3.00;2.80;;;;;;;;;;12544827;28;20045;-76
2022/07/25 01:25:18;;;;;;;2.80;2.60;;;;;;;;;;12545247;28;20397;-76
2022/07/25 01:31:20;;;;;;;3.03;2.83;;;;;;;;;;12527109;28;20036;-76
2022/07/25 01:37:22;;;;;;;2.70;2.50;;;;;;;;;;12544453;28;20037;-80
2022/07/25 01:43:23;;;;;;;3.88;3.47;;;;;;;;;;12543603;28;20049;-79
2022/07/25 01:49:25;;;;;;;2.95;2.65;;;;;;;;;;12543031;28;20029;-76
2022/07/25 01:55:27;;;;;;;3.78;3.38;;;;;;;;;;12545460;28;20048;-79
2022/07/25 02:01:29;;;;;;;3.90;3.50;;;;;;;;;;12552108;28;20377;-77
2022/07/25 02:07:30;;;;;;;4.60;4.20;;;;;;;;;;12555936;28;20036;-76
2022/07/25 02:13:32;;;;;;;3.92;3.60;;;;;;;;;;12552657;28;20056;-76
2022/07/25 02:19:34;;;;;;;3.10;2.90;;;;;;;;;;12550829;28;20029;-79
2022/07/25 02:25:37;;;;;;;4.43;3.53;;;;;;;;;;12550492;28;20040;-80
2022/07/25 02:31:38;;;;;;;3.72;3.42;;;;;;;;;;12557841;28;20396;-77
2022/07/25 02:37:40;;;;;;;5.80;3.83;;;;;;;;;;12549881;28;20511;-77
2022/07/25 02:43:43;;;;;;;4.68;3.45;;;;;;;;;;12556326;28;20069;-77
2022/07/25 02:49:44;;;;;;;3.55;3.25;;;;;;;;;;12550625;28;20430;-81
2022/07/25 02:55:46;;;;;;;4.10;3.80;;;;;;;;;;12552940;28;20048;-77
2022/07/25 03:01:48;;;;;;;4.45;4.05;;;;;;;;;;12551191;28;20151;-76
2022/07/25 03:07:49;;;;;;;3.58;3.28;;;;;;;;;;12549716;28;20029;-80
2022/07/25 03:13:51;;;;;;;4.10;3.72;;;;;;;;;;12549215;28;20067;-76
2022/07/25 03:19:53;;;;;;;4.22;3.92;;;;;;;;;;12549940;28;20495;-76
2022/07/25 03:25:55;;;;;;;4.00;3.70;;;;;;;;;;12547883;28;20044;-76
2022/07/25 03:31:58;;;;;;;3.75;3.45;;;;;;;;;;12548513;28;20025;-79
2022/07/25 03:37:59;;;;;;;4.20;3.90;;;;;;;;;;12532107;28;20508;-79
2022/07/25 03:44:01;;;;;;;4.53;4.13;;;;;;;;;;12548606;28;20400;-79
2022/07/25 03:50:03;;;;;;;4.30;3.97;;;;;;;;;;12548132;28;20070;-77
2022/07/25 03:56:05;;;;;;;4.00;3.70;;;;;;;;;;12547974;28;20051;-74
2022/07/25 04:02:06;;;;;;;4.13;3.70;;;;;;;;;;12548136;28;20476;-79
2022/07/25 04:08:08;;;;;;;4.13;3.75;;;;;;;;;;12548127;28;20393;-76
2022/07/25 04:14:10;;;;;;;4.03;3.72;;;;;;;;;;12549995;28;20041;-80
2022/07/25 04:20:12;;;;;;;4.28;3.92;;;;;;;;;;12553768;28;20033;-80
2022/07/25 04:26:14;;;;;;;4.47;4.07;;;;;;;;;;12544924;28;20037;-75
2022/07/25 04:32:18;;;;;;;4.72;4.35;;;;;;;;;;12546181;28;20040;-79
2022/07/25 04:38:19;;;;;;;4.10;3.80;;;;;;;;;;12545878;28;20040;-80
2022/07/25 04:44:21;;;;;;;3.25;3.05;;;;;;;;;;12546106;28;20385;-79
2022/07/25 04:50:23;;;;;;;4.10;3.75;;;;;;;;;;12547914;28;20041;-78
2022/07/25 04:56:25;;;;;;;4.07;3.78;;;;;;;;;;12545790;28;20040;-76
2022/07/25 05:02:26;;;;;;;3.60;2.95;;;;;;;;;;12544214;28;20036;-76
2022/07/25 05:08:29;;;;;;;4.95;4.10;;;;;;;;;;12548713;28;20029;-81
2022/07/25 05:14:30;;;;;;;4.05;3.67;;;;;;;;;;12528357;28;20056;-79
2022/07/25 05:20:32;;;;;;;4.45;4.05;;;;;;;;;;12544817;28;20504;-77
2022/07/25 05:26:34;;;;;;;3.90;3.53;;;;;;;;;;12544872;28;20037;-80
2022/07/25 05:32:36;;;;;;;4.20;3.80;;;;;;;;;;12548063;28;20036;-79
2022/07/25 05:38:38;;;;;;;3.30;3.10;;;;;;;;;;12554509;28;20048;-81
2022/07/25 05:44:40;;;;;;;4.28;3.88;;;;;;;;;;12556624;28;20053;-78
2022/07/25 05:50:42;;;;;;;3.03;2.83;;;;;;;;;;12570527;28;20036;-77
2022/07/25 05:56:44;;;;;;;3.22;3.00;;;;;;;;;;12561058;28;20045;-80
2022/07/25 06:02:45;;;;;;;3.75;3.45;;;;;;;;;;12559053;28;20401;-76
2022/07/25 06:08:47;;;;;;;4.70;4.20;;;;;;;;;;12552731;28;20043;-76
2022/07/25 06:14:49;;;;;;;4.10;3.80;;;;;;;;;;12551709;28;20508;-75
2022/07/25 06:20:51;;;;;;;3.47;3.17;;;;;;;;;;12556941;28;20033;-76
2022/07/25 06:26:53;;;;;;;4.07;3.33;;;;;;;;;;12553742;28;20264;-80
2022/07/25 06:32:54;;;;;;;3.08;2.65;;;;;;;;;;12553558;28;20404;-76
2022/07/25 06:38:56;;;;;;;3.35;3.03;;;;;;;;;;12550584;28;20053;-76
2022/07/25 06:44:58;;;;;;;4.47;3.10;;;;;;;;;;12550004;28;20507;-76
2022/07/25 06:51:00;;;;;;;3.65;2.80;;;;;;;;;;12552616;28;20033;-79
2022/07/25 06:57:02;;;;;;;2.97;2.78;;;;;;;;;;12555548;28;20044;-80
2022/07/25 07:03:04;;;;;;;3.60;3.30;;;;;;;;;;12540170;28;20052;-76
2022/07/25 07:09:06;;;;;;;3.28;2.97;;;;;;;;;;12552650;28;20037;-80
2022/07/25 07:15:08;;;;;;;2.88;2.67;;;;;;;;;;12553712;28;20052;-80
2022/07/25 07:21:10;;;;;;;3.10;2.90;;;;;;;;;;12549307;28;20650;-75
2022/07/25 07:27:12;;;;;;;3.50;2.63;;;;;;;;;;12548685;28;20037;-79
2022/07/25 07:33:13;;;;;;;2.65;2.45;;;;;;;;;;12547823;28;20036;-80
2022/07/25 07:39:15;;;;;;;3.22;3.03;;;;;;;;;;12545260;28;20052;-80
2022/07/25 07:45:18;;;;;;;2.63;2.42;;;;;;;;;;12528690;28;20060;-76
2022/07/25 07:51:20;;;;;;;2.33;2.13;;;;;;;;;;12546690;28;20044;-80
2022/07/25 07:57:22;;;;;;;3.17;2.92;;;;;;;;;;12580831;28;20212;-80
2022/07/25 08:03:23;;;;;;;3.63;3.00;;;;;;;;;;12550869;28;20032;-80
2022/07/25 08:09:26;;;;;;;3.55;3.25;;;;;;;;;;12545252;28;20048;-76
2022/07/25 08:15:28;;;;;;;4.63;2.95;;;;;;;;;;12545057;28;20045;-77
2022/07/25 08:21:30;;;;;;;3.28;3.08;;;;;;;;;;12546485;28;20392;-80
2022/07/25 08:27:32;;;;;;;2.90;2.70;;;;;;;;;;12545341;28;20036;-80
2022/07/25 08:33:33;;;;;;;2.88;2.58;;;;;;;;;;12544710;28;20041;-76
2022/07/25 08:39:35;;;;;;;2.90;2.70;;;;;;;;;;12544251;28;20053;-76
2022/07/25 08:45:39;;;;;;;2.50;2.30;;;;;;;;;;12545023;28;20040;-80
2022/07/25 08:51:41;;;;;;;2.97;2.78;;;;;;;;;;12544708;28;20032;-80
2022/07/25 08:57:43;;;;;;;2.88;2.67;;;;;;;;;;12542911;28;20037;-76
2022/07/25 09:03:45;;;;;;;2.97;2.70;;;;;;;;;;12546261;28;20044;-80
2022/07/25 09:09:47;;;;;;;2.55;2.40;;;;;;;;;;12553933;28;20048;-76
2022/07/25 09:15:50;;;;;;;2.90;2.70;;;;;;;;;;12554244;28;20401;-79
2022/07/25 09:21:58;;;;;;;3.03;2.83;;;;;;;;;;12554530;28;20028;-79
2022/07/25 09:28:16;;;;;;;2.97;2.72;;;;;;;;;;12535775;28;20488;-76
2022/07/25 09:34:33;;;;;;;2.50;2.30;;;;;;;;;;12553427;28;20044;-79
2022/07/25 09:40:35;;;;;;;2.58;2.38;;;;;;;;;;12552295;28;20062;-77
2022/07/25 09:46:37;;;;;;;2.60;2.40;;;;;;;;;;12551586;28;20065;-79
2022/07/25 09:52:39;;;;;;;2.60;2.40;;;;;;;;;;12551648;28;20029;-79
2022/07/25 09:58:41;;;;;;;2.38;2.28;;;;;;;;;;12551789;28;20057;-80
2022/07/25 10:04:50;;;;;;;3.20;3.00;;;;;;;;;;12552340;28;20040;-76
2022/07/25 10:10:53;;;;;;;2.87;2.67;;;;;;;;;;12551486;28;20037;-79
2022/07/25 10:16:55;;;;;;;2.95;2.63;;;;;;;;;;12550266;28;20053;-80
2022/07/25 10:22:57;;;;;;;2.38;2.17;;;;;;;;;;12550444;28;20033;-76
2022/07/25 10:29:00;;;;;;;3.50;2.33;;;;;;;;;;12551676;28;20029;-80
2022/07/25 10:35:11;;;;;;;3.63;2.20;;;;;;;;;;12549821;28;20048;-80
2022/07/25 10:41:15;;;;;;;2.30;2.10;;;;;;;;;;12552560;28;20512;-77
2022/07/25 10:47:17;;;;;;;3.05;2.75;;;;;;;;;;12550727;28;20029;-77
2022/07/25 10:53:28;;;;;;;2.55;2.35;;;;;;;;;;12548183;28;20029;-77
2022/07/25 10:59:33;;;;;;;2.78;2.05;;;;;;;;;;12547749;28;20048;-77
2022/07/25 11:05:44;;;;;;;3.08;2.45;;;;;;;;;;12549654;28;20044;-80
2022/07/25 11:11:47;;;;;;;2.70;2.50;;;;;;;;;;12549867;28;20037;-76
2022/07/25 11:17:52;;;;;;;3.72;2.60;;;;;;;;;;12550310;28;20070;-79
2022/07/25 11:23:54;;;;;;;2.65;2.25;;;;;;;;;;12549020;28;20029;-79
2022/07/25 11:30:15;;;;;;;3.22;2.80;;;;;;;;;;12548617;28;20373;-80
2022/07/25 11:36:18;;;;;;;2.45;2.17;;;;;;;;;;12546857;28;20049;-76
2022/07/25 11:42:20;;;;;;;1.83;1.73;;;;;;;;;;12549894;28;20481;-80
2022/07/25 11:48:30;;;;;;;2.72;2.53;;;;;;;;;;12546765;28;20040;-80
2022/07/25 11:54:31;;;;;;;2.67;2.57;;;;;;;;;;12546132;28;20048;-79
2022/07/25 12:00:35;;;;;;;3.30;3.10;;;;;;;;;;12529805;28;20066;-80
2022/07/25 12:06:37;;;;;;;2.40;2.30;;;;;;;;;;12545369;28;20044;-77
2022/07/25 12:12:50;;;;;;;3.33;3.08;;;;;;;;;;12547792;28;20043;-75
2022/07/25 12:18:52;;;;;;;2.83;2.53;;;;;;;;;;12547340;28;20060;-80
2022/07/25 12:24:53;;;;;;;1.90;1.80;;;;;;;;;;12546276;28;20040;-78
2022/07/25 12:30:55;;;;;;;3.88;3.55;;;;;;;;;;12546378;28;20036;-80
2022/07/25 12:36:57;;;;;;;3.00;2.80;;;;;;;;;;12545663;28;20052;-80
2022/07/25 12:43:00;;;;;;;2.72;2.53;;;;;;;;;;12546297;28;20064;-80
2022/07/25 12:49:02;;;;;;;2.83;2.63;;;;;;;;;;12545775;28;20033;-79
2022/07/25 12:55:05;;;;;;;2.63;2.42;;;;;;;;;;12545246;28;20233;-79
2022/07/25 13:01:07;;;;;;;2.33;2.13;;;;;;;;;;12543989;28;20041;-77
2022/07/25 13:07:08;;;;;;;2.33;2.13;;;;;;;;;;12545313;28;20033;-80
2022/07/25 13:13:10;;;;;;;2.67;2.47;;;;;;;;;;12544082;28;20039;-77
2022/07/25 13:19:12;;;;;;;2.00;1.90;;;;;;;;;;12544884;28;20045;-78
2022/07/25 13:25:14;;;;;;;2.10;2.00;;;;;;;;;;12544405;28;20037;-76
2022/07/25 13:31:16;;;;;;;1.80;1.70;;;;;;;;;;12544284;28;20087;-79
2022/07/25 13:37:18;;;;;;;2.30;2.10;;;;;;;;;;12528227;28;20492;-76
2022/07/25 13:43:20;;;;;;;2.22;2.08;;;;;;;;;;12543877;28;20080;-77
2022/07/25 13:49:21;;;;;;;2.30;2.10;;;;;;;;;;12544993;28;20029;-79
2022/07/25 13:55:23;;;;;;;2.20;2.00;;;;;;;;;;12550247;28;20045;-79
2022/07/25 14:01:27;;;;;;;4.05;2.92;;;;;;;;;;12552033;28;20044;-77
2022/07/25 14:07:29;;;;;;;2.00;1.90;;;;;;;;;;12553087;28;20044;-77
2022/07/25 14:13:31;;;;;;;2.13;2.03;;;;;;;;;;12552798;28;20404;-79
2022/07/25 14:19:33;;;;;;;2.95;2.58;;;;;;;;;;12551801;28;20045;-80
2022/07/25 14:25:35;;;;;;;2.08;1.95;;;;;;;;;;12552559;28;20123;-76
2022/07/25 14:31:38;;;;;;;4.28;2.65;;;;;;;;;;12550587;28;20048;-77
2022/07/25 14:37:39;;;;;;;2.50;2.30;;;;;;;;;;12549988;28;20052;-81
2022/07/25 14:43:41;;;;;;;1.80;1.70;;;;;;;;;;12550266;28;20052;-78
2022/07/25 14:49:43;;;;;;;2.05;1.95;;;;;;;;;;12551006;28;20511;-81
2022/07/25 14:55:45;;;;;;;2.00;1.90;;;;;;;;;;12549984;28;20048;-81
2022/07/25 15:01:47;;;;;;;2.08;1.98;;;;;;;;;;12551263;28;20488;-76
2022/07/25 15:07:48;;;;;;;2.85;2.55;;;;;;;;;;12549513;28;20091;-80
2022/07/25 15:13:51;;;;;;;2.35;2.20;;;;;;;;;;12551168;28;20033;-81
2022/07/25 15:19:53;;;;;;;2.40;2.30;;;;;;;;;;12550236;28;20041;-79
2022/07/25 15:25:55;;;;;;;2.25;2.15;;;;;;;;;;12548227;28;20099;-79
2022/07/25 15:31:57;;;;;;;2.20;2.05;;;;;;;;;;12553148;28;20033;-76
2022/07/25 15:37:59;;;;;;;2.88;2.67;;;;;;;;;;12547831;28;20051;-76
2022/07/25 15:44:02;;;;;;;2.75;2.55;;;;;;;;;;12548216;28;20497;-80
2022/07/25 15:50:03;;;;;;;2.25;2.08;;;;;;;;;;12547285;28;20068;-79
2022/07/25 15:56:05;;;;;;;2.13;2.00;;;;;;;;;;12546680;28;20392;-80
2022/07/25 16:02:11;;;;;;;4.93;2.20;;;;;;;;;;12547475;28;20083;-76
2022/07/25 16:08:13;;;;;;;2.58;2.22;;;;;;;;;;12545149;28;20056;-80
2022/07/25 16:14:15;;;;;;;2.67;2.47;;;;;;;;;;12546464;28;20045;-76
2022/07/25 16:20:17;;;;;;;3.05;2.05;;;;;;;;;;12546227;28;20041;-76
2022/07/25 16:26:19;;;;;;;2.17;2.00;;;;;;;;;;12545034;28;20033;-78
2022/07/25 16:32:20;;;;;;;2.72;1.73;;;;;;;;;;12546374;28;20047;-76
2022/07/25 16:38:22;;;;;;;2.00;1.90;;;;;;;;;;12543816;28;20044;-80
2022/07/25 16:44:24;;;;;;;2.10;1.88;;;;;;;;;;12547341;28;20053;-80
2022/07/25 16:50:26;;;;;;;2.13;2.03;;;;;;;;;;12544668;28;20037;-79
2022/07/25 16:56:27;;;;;;;2.25;2.15;;;;;;;;;;12544447;28;20045;-76
2022/07/25 17:02:29;;;;;;;2.50;2.30;;;;;;;;;;12544303;28;20374;-80
2022/07/25 17:08:31;;;;;;;2.30;2.20;;;;;;;;;;12544631;28;20033;-81
2022/07/25 17:14:33;;;;;;;2.42;2.22;;;;;;;;;;12528934;28;20056;-80
2022/07/25 17:20:34;;;;;;;2.38;2.17;;;;;;;;;;12547805;28;20037;-80
2022/07/25 17:26:36;;;;;;;2.63;2.38;;;;;;;;;;12550351;28;20040;-77
2022/07/25 17:32:38;;;;;;;2.30;2.20;;;;;;;;;;12554951;28;20032;-80
2022/07/25 17:38:40;;;;;;;2.30;2.10;;;;;;;;;;12555200;28;20501;-80
2022/07/25 17:44:42;;;;;;;2.15;2.00;;;;;;;;;;12539194;28;20492;-79
2022/07/25 17:50:44;;;;;;;4.07;2.10;;;;;;;;;;12559781;28;20063;-77
2022/07/25 17:56:46;;;;;;;2.30;2.20;;;;;;;;;;12556051;28;20045;-80
2022/07/25 18:02:47;;;;;;;2.90;2.60;;;;;;;;;;12556385;28;20037;-80
2022/07/25 18:08:49;;;;;;;2.33;2.22;;;;;;;;;;12556366;28;20044;-80
2022/07/25 18:14:51;;;;;;;2.08;1.98;;;;;;;;;;12551771;28;20033;-80
2022/07/25 18:20:53;;;;;;;2.25;2.05;;;;;;;;;;12552145;28;20048;-77
2022/07/25 18:26:55;;;;;;;2.20;2.10;;;;;;;;;;12550575;28;20048;-77
2022/07/25 18:32:57;;;;;;;2.50;2.30;;;;;;;;;;12551595;28;20040;-77
2022/07/25 18:38:59;;;;;;;3.15;2.50;;;;;;;;;;12553416;28;20037;-77
2022/07/25 18:45:01;;;;;;;2.30;2.20;;;;;;;;;;12555395;28;20061;-80
2022/07/25 18:51:03;;;;;;;2.58;2.38;;;;;;;;;;12549648;28;20035;-79
2022/07/25 18:57:05;;;;;;;1.92;1.83;;;;;;;;;;12556353;28;20166;-80
2022/07/25 19:03:06;;;;;;;2.20;2.00;;;;;;;;;;12557253;28;20044;-76
2022/07/25 19:09:09;;;;;;;2.47;2.03;;;;;;;;;;12548750;28;20041;-79
2022/07/25 19:15:11;;;;;;;2.65;2.40;;;;;;;;;;12548085;28;20033;-76
2022/07/25 19:21:12;;;;;;;2.70;2.10;;;;;;;;;;12550114;28;20032;-76
2022/07/25 19:27:15;;;;;;;3.17;2.10;;;;;;;;;;12549386;28;20032;-80
2022/07/25 19:33:17;;;;;;;2.40;2.20;;;;;;;;;;12548692;28;20108;-80
2022/07/25 19:39:18;;;;;;;1.88;1.77;;;;;;;;;;12549067;28;20032;-79
2022/07/25 19:45:20;;;;;;;2.53;2.10;;;;;;;;;;12550239;28;20025;-76
2022/07/25 19:51:22;;;;;;;1.98;1.88;;;;;;;;;;12548743;28;20044;-79
2022/07/25 19:57:24;;;;;;;2.03;1.83;;;;;;;;;;12531555;28;20104;-80
2022/07/25 20:03:25;;;;;;;3.58;2.20;;;;;;;;;;12547750;28;20037;-80
2022/07/25 20:09:28;;;;;;;2.28;2.00;;;;;;;;;;12549072;28;20041;-80
2022/07/25 20:15:29;;;;;;;2.00;1.90;;;;;;;;;;12546665;28;20044;-80
2022/07/25 20:21:32;;;;;;;2.13;2.00;;;;;;;;;;12548141;28;20039;-76
2022/07/25 20:27:34;;;;;;;3.38;2.30;;;;;;;;;;12547818;28;20135;-77
2022/07/25 20:33:36;;;;;;;2.70;2.50;;;;;;;;;;12547105;28;20500;-79
2022/07/25 20:39:38;;;;;;;2.35;2.15;;;;;;;;;;12544435;28;20087;-76
2022/07/25 20:45:40;;;;;;;2.47;2.28;;;;;;;;;;12546063;28;20144;-80
2022/07/25 20:51:41;;;;;;;2.75;2.20;;;;;;;;;;12544170;28;20477;-80
2022/07/25 20:57:43;;;;;;;2.53;2.40;;;;;;;;;;12544328;28;20049;-79
2022/07/25 21:03:45;;;;;;;2.53;2.08;;;;;;;;;;12543240;28;20045;-77
2022/07/25 21:09:47;;;;;;;2.53;2.25;;;;;;;;;;12545217;28;20484;-77
2022/07/25 21:15:48;;;;;;;2.60;2.40;;;;;;;;;;12545175;28;20049;-81
2022/07/25 21:21:50;;;;;;;3.50;2.13;;;;;;;;;;12543362;28;20037;-75
2022/07/25 21:27:52;;;;;;;3.65;2.35;;;;;;;;;;12545241;28;20040;-77
2022/07/25 21:33:54;;;;;;;2.72;2.53;;;;;;;;;;12544598;28;20040;-80
2022/07/25 21:39:56;;;;;;;2.67;2.47;;;;;;;;;;12544561;28;20056;-77
2022/07/25 21:45:58;;;;;;;3.00;2.80;;;;;;;;;;12544044;28;20029;-80
2022/07/25 21:52:00;;;;;;;3.13;2.83;;;;;;;;;;12542647;28;20033;-80
2022/07/25 21:58:02;;;;;;;3.58;3.25;;;;;;;;;;12544873;28;20052;-76
2022/07/25 22:04:04;;;;;;;3.25;2.90;;;;;;;;;;12543841;28;20029;-77
2022/07/25 22:10:07;;;;;;;2.90;2.70;;;;;;;;;;12542591;28;20044;-80
2022/07/25 22:16:09;;;;;;;3.20;2.90;;;;;;;;;;12549008;28;20041;-77
2022/07/25 22:22:11;;;;;;;2.90;2.70;;;;;;;;;;12550970;28;20028;-81
2022/07/25 22:28:13;;;;;;;2.88;2.67;;;;;;;;;;12550583;28;20037;-80
2022/07/25 22:34:15;;;;;;;3.50;2.47;;;;;;;;;;12553225;28;20025;-80
2022/07/25 22:40:16;;;;;;;2.95;2.22;;;;;;;;;;12552486;28;20053;-77
2022/07/25 22:46:18;;;;;;;6.03;3.55;;;;;;;;;;12551184;28;20033;-80
2022/07/25 22:52:20;;;;;;;4.10;3.50;;;;;;;;;;12552829;28;20033;-81
2022/07/25 22:58:21;;;;;;;4.57;3.30;;;;;;;;;;12550040;28;20044;-77
2022/07/25 23:04:23;;;;;;;5.18;3.10;;;;;;;;;;12550197;28;20396;-80
2022/07/25 23:10:25;;;;;;;3.30;3.00;;;;;;;;;;12549346;28;20041;-77
2022/07/25 23:16:27;;;;;;;3.50;3.00;;;;;;;;;;12549498;28;20045;-80
2022/07/25 23:22:28;;;;;;;3.20;2.90;;;;;;;;;;12548827;28;20037;-77
2022/07/25 23:28:30;;;;;;;3.20;3.00;;;;;;;;;;12549202;28;20473;-80
2022/07/25 23:34:32;;;;;;;3.05;2.85;;;;;;;;;;12548611;28;20036;-80
2022/07/25 23:40:34;;;;;;;3.38;3.08;;;;;;;;;;12547257;28;20527;-80
2022/07/25 23:46:39;;;;;;;3.88;3.58;;;;;;;;;;12547015;28;20048;-80
2022/07/25 23:52:41;;;;;;;3.42;3.13;;;;;;;;;;12547430;28;20029;-77
2022/07/25 23:58:42;;;;;;;3.80;3.50;;;;;;;;;;12550192;28;20530;-80
